createdAt,value
2023-10-20T00:04:51.037Z,61.2
2023-10-20T00:10:42.416Z,61.1
2023-10-20T00:16:33.945Z,61.1
2023-10-20T00:22:25.908Z,61
2023-10-20T00:28:17.501Z,60.9
2023-10-20T00:34:09.808Z,60.9
2023-10-20T00:40:01.463Z,60.9
2023-10-20T00:45:53.914Z,60.8
2023-10-20T00:51:46.447Z,60.8
2023-10-20T00:57:38.701Z,60.7
2023-10-20T01:03:31.559Z,60.6
2023-10-20T01:09:23.783Z,60.6
2023-10-20T01:15:15.845Z,60.6
2023-10-20T01:21:08.145Z,60.5
2023-10-20T01:27:00.150Z,60.4
2023-10-20T01:32:51.421Z,60.4
2023-10-20T01:38:43.300Z,60.3
2023-10-20T01:44:35.202Z,60.3
2023-10-20T01:50:28.310Z,60.2
2023-10-20T01:56:20.543Z,60.1
2023-10-20T02:02:12.196Z,60.1
2023-10-20T02:08:04.815Z,60.1
2023-10-20T02:13:41.810Z,60
2023-10-20T02:19:34.783Z,59.9
2023-10-20T02:25:26.814Z,59.9
2023-10-20T02:31:18.907Z,59.8
2023-10-20T02:37:11.538Z,59.8
2023-10-20T02:43:02.622Z,59.8
2023-10-20T02:48:54.906Z,59.7
2023-10-20T02:54:47.620Z,59.6
2023-10-20T03:00:39.169Z,59.6
2023-10-20T03:06:33.153Z,59.5
2023-10-20T03:12:24.592Z,59.5
2023-10-20T03:18:16.805Z,59.4
2023-10-20T03:24:11.752Z,59.4
2023-10-20T03:30:03.364Z,59.3
2023-10-20T03:35:56.167Z,59.3
2023-10-20T03:41:48.134Z,59.2
2023-10-20T03:47:40.406Z,59.2
2023-10-20T03:53:32.661Z,59.1
2023-10-20T03:59:24.671Z,59.1
2023-10-20T04:05:02.104Z,59
2023-10-20T04:10:53.925Z,58.9
2023-10-20T04:16:31.441Z,58.9
2023-10-20T04:22:10.115Z,58.9
2023-10-20T04:27:46.293Z,58.8
2023-10-20T04:33:23.181Z,58.8
2023-10-20T04:39:00.622Z,58.7
2023-10-20T04:44:37.534Z,58.7
2023-10-20T04:50:16.037Z,58.6
2023-10-20T05:01:14.023Z,58.5
2023-10-20T05:06:53.778Z,58.4
2023-10-20T05:12:29.445Z,58.4
2023-10-20T05:18:06.493Z,58.3
2023-10-20T05:23:42.336Z,58.3
2023-10-20T05:29:17.928Z,58.3
2023-10-20T05:34:57.316Z,58.2
2023-10-20T05:40:18.324Z,58.1
2023-10-20T05:45:39.604Z,58.1
2023-10-20T05:51:01.216Z,58.1
2023-10-20T05:56:22.210Z,58
2023-10-20T06:01:59.004Z,57.9
2023-10-20T06:07:36.428Z,57.9
2023-10-20T06:12:58.162Z,57.9
2023-10-20T06:18:29.449Z,57.8
2023-10-20T06:34:36.973Z,57.7
2023-10-20T06:40:14.191Z,57.6
2023-10-20T06:45:51.203Z,57.6
2023-10-20T06:51:43.918Z,57.5
2023-10-20T06:58:31.642Z,57.5
2023-10-20T07:04:24.171Z,57.4
2023-10-20T07:10:15.564Z,57.4
2023-10-20T07:16:12.958Z,57.4
2023-10-20T07:22:05.389Z,57.3
2023-10-20T07:27:59.659Z,57.3
2023-10-20T07:33:58.525Z,57.2
2023-10-20T07:39:51.798Z,57.1
2023-10-20T07:45:43.845Z,57.1
2023-10-20T07:51:38.443Z,57.1
2023-10-20T07:57:16.118Z,57
2023-10-20T08:03:11.649Z,56.9
2023-10-20T08:09:10.441Z,56.9
2023-10-20T08:15:04.581Z,56.9
2023-10-20T08:20:58.052Z,56.8
2023-10-20T08:26:50.653Z,56.8
2023-10-20T08:32:43.328Z,56.8
2023-10-20T08:38:36.424Z,56.7
2023-10-20T08:44:36.081Z,56.6
2023-10-20T08:49:58.604Z,56.6
2023-10-20T08:55:58.294Z,56.6
2023-10-20T09:02:08.735Z,56.5
2023-10-20T09:08:01.523Z,56.4
2023-10-20T09:13:57.118Z,56.4
2023-10-20T09:19:52.875Z,56.4
2023-10-20T09:25:32.278Z,56.3
2023-10-20T09:31:16.273Z,56.3
2023-10-20T09:37:11.463Z,56.3
2023-10-20T09:42:48.783Z,56.2
2023-10-20T09:48:54.576Z,56.2
2023-10-20T09:54:50.717Z,56.4
2023-10-20T10:00:46.550Z,56.5
2023-10-20T10:06:41.207Z,56.5
2023-10-20T10:12:34.023Z,56.6
2023-10-20T10:18:26.546Z,56.7
2023-10-20T10:24:22.068Z,56.7
2023-10-20T10:30:28.073Z,56.7
2023-10-20T10:36:42.419Z,56.6
2023-10-20T10:42:36.808Z,56.8
2023-10-20T10:48:34.238Z,57.1
2023-10-20T10:54:32.119Z,57.4
2023-10-20T11:00:28.482Z,57.8
2023-10-20T11:06:26.683Z,58.2
2023-10-20T11:12:19.124Z,58.5
2023-10-20T11:18:15.439Z,58.8
2023-10-20T11:24:11.536Z,59
2023-10-20T11:30:16.124Z,59.3
2023-10-20T11:36:08.609Z,59.6
2023-10-20T11:42:00.869Z,59.8
2023-10-20T11:47:51.916Z,60.1
2023-10-20T11:53:48.336Z,60.2
2023-10-20T11:59:42.685Z,60.3
2023-10-20T12:05:35.506Z,60.4
2023-10-20T12:11:12.027Z,60.5
2023-10-20T12:17:04.085Z,60.6
2023-10-20T12:22:56.789Z,60.6
2023-10-20T12:28:36.604Z,60.7
2023-10-20T12:34:30.890Z,60.7
2023-10-20T12:40:22.077Z,60.7
2023-10-20T12:45:59.786Z,60.6
2023-10-20T12:51:37.711Z,60.6
2023-10-20T12:57:14.076Z,60.6
2023-10-20T13:02:51.908Z,60.6
2023-10-20T13:08:41.452Z,60.6
2023-10-20T13:14:35.431Z,60.6
2023-10-20T13:20:28.568Z,60.5
2023-10-20T13:26:05.001Z,60.4
2023-10-20T13:32:01.661Z,60.4
2023-10-20T13:37:55.303Z,60.3
2023-10-20T13:44:03.889Z,60.3
2023-10-20T13:49:56.619Z,60.3
2023-10-20T13:55:49.290Z,60.2
2023-10-20T14:01:41.486Z,60.1
2023-10-20T14:07:21.234Z,60.1
2023-10-20T14:12:57.810Z,60
2023-10-20T14:18:34.549Z,60
2023-10-20T14:24:10.074Z,59.9
2023-10-20T14:29:45.959Z,59.9
2023-10-20T14:35:22.688Z,59.8
2023-10-20T14:41:01.042Z,59.8
2023-10-20T14:46:38.263Z,59.8
2023-10-20T14:52:15.030Z,59.7
2023-10-20T14:58:06.420Z,59.7
2023-10-20T15:03:45.157Z,59.6
2023-10-20T15:09:54.737Z,59.6
2023-10-20T15:15:47.846Z,59.5
2023-10-20T15:21:43.563Z,59.4
2023-10-20T15:27:48.010Z,59.4
2023-10-20T15:33:40.866Z,59.3
2023-10-20T15:39:45.034Z,59.3
2023-10-20T15:45:53.716Z,59.3
2023-10-20T15:51:46.430Z,59.2
2023-10-20T15:57:37.791Z,59.1
2023-10-20T16:03:33.852Z,59.1
2023-10-20T16:09:10.748Z,59.1
2023-10-20T16:15:01.701Z,59
2023-10-20T16:20:54.115Z,58.9
2023-10-20T16:26:45.104Z,58.9
2023-10-20T16:32:39.525Z,58.9
2023-10-20T16:38:31.597Z,58.8
2023-10-20T16:44:07.126Z,58.8
2023-10-20T16:49:43.670Z,58.7
2023-10-20T16:55:35.387Z,58.7
2023-10-20T17:01:26.585Z,58.6
2023-10-20T17:12:58.594Z,58.5
2023-10-20T17:18:52.815Z,58.5
2023-10-20T17:24:44.453Z,58.4
2023-10-20T17:30:36.181Z,58.4
2023-10-20T17:36:29.472Z,58.3
2023-10-20T17:42:24.644Z,58.3
2023-10-20T17:48:17.280Z,58.3
2023-10-20T17:54:09.319Z,58.2
2023-10-20T18:00:02.389Z,58.1
2023-10-20T18:06:00.488Z,58.1
2023-10-20T18:11:57.759Z,58.1
2023-10-20T18:17:52.561Z,58
2023-10-20T18:23:45.467Z,57.9
2023-10-20T18:29:41.600Z,57.9
2023-10-20T18:35:35.031Z,57.8
2023-10-20T18:47:07.446Z,57.7
2023-10-20T18:53:01.155Z,57.6
2023-10-20T18:58:53.992Z,57.6
2023-10-20T19:04:48.861Z,57.5
2023-10-20T19:10:30.366Z,57.4
2023-10-20T19:16:22.694Z,57.4
2023-10-20T19:22:18.150Z,57.4
2023-10-20T19:28:14.241Z,57.3
2023-10-20T19:34:07.687Z,57.3
2023-10-20T19:40:00.851Z,57.3
2023-10-20T19:45:54.535Z,57.2
2023-10-20T19:51:48.107Z,57.1
2023-10-20T19:57:40.012Z,57.1
2023-10-20T20:03:34.383Z,57.1
2023-10-20T20:09:28.684Z,57
2023-10-20T20:15:22.642Z,56.9
2023-10-20T20:21:01.365Z,56.9
2023-10-20T20:26:37.925Z,56.8
2023-10-20T20:32:30.470Z,56.8
2023-10-20T20:38:22.164Z,56.8
2023-10-20T20:44:15.200Z,56.7
2023-10-20T20:49:53.255Z,56.6
2023-10-20T20:55:53.145Z,56.6
2023-10-20T21:01:45.411Z,56.6
2023-10-20T21:07:26.011Z,56.5
2023-10-20T21:13:01.854Z,56.4
2023-10-20T21:18:54.372Z,56.4
2023-10-20T21:24:30.905Z,56.4
2023-10-20T21:30:06.955Z,56.3
2023-10-20T21:35:45.120Z,56.3
2023-10-20T21:41:36.621Z,56.3
2023-10-20T21:47:12.927Z,56.2
2023-10-20T21:52:49.055Z,56.1
2023-10-20T21:58:25.111Z,56.1
2023-10-20T22:04:15.731Z,56.1
2023-10-20T22:10:18.645Z,56
2023-10-20T22:15:54.233Z,55.9
2023-10-20T22:21:46.912Z,55.9
2023-10-20T22:27:38.545Z,55.9
2023-10-20T22:33:33.343Z,55.8
2023-10-20T22:39:10.256Z,55.8
2023-10-20T22:45:02.822Z,55.7
2023-10-20T22:50:41.989Z,55.7
2023-10-20T22:56:34.070Z,55.6
2023-10-20T23:01:55.781Z,55.6
2023-10-20T23:07:33.212Z,55.5
2023-10-20T23:13:10.196Z,55.5
2023-10-20T23:19:02.560Z,55.4
2023-10-20T23:24:07.244Z,55.4
2023-10-20T23:29:27.396Z,55.3
2023-10-20T23:35:04.654Z,55.3
2023-10-20T23:40:56.957Z,55.3
2023-10-20T23:46:33.857Z,55.2
2023-10-20T23:52:11.124Z,55.2
2023-10-20T23:57:47.214Z,55.1
